This is the latest recevied weather packets stored in our database for station/object Huerbel. If no packets are shown the sender has not sent any weather packets the latest 10 day(s).
| Time | Temp. | Humidity | Pressure | Rain* | Wind** | Luminosity | Snow |
|---|---|---|---|---|---|---|---|
| 1778050932 | 12.22° C | 82% | 1007.9 hPa | 0 mm | - | - | - |
| 1778049131 | 11.11° C | 89% | 1007.8 hPa | 0 mm | - | - | - |
| 1778047331 | 9.44° C | 90% | 1007.9 hPa | 0 mm | - | - | - |
| 1778045531 | 8.33° C | 89% | 1007.9 hPa | 0 mm | - | - | - |
| 1778043731 | 7.78° C | 88% | 1008 hPa | 0 mm | - | - | - |
| 1778041932 | 7.78° C | 88% | 1008.2 hPa | 0 mm | - | - | - |
| 1778040131 | 7.78° C | 88% | 1008.4 hPa | 0 mm | - | - | - |
| 1778038331 | 7.78° C | 87% | 1008.7 hPa | 0 mm | - | - | - |
| 1778036532 | 8.33° C | 87% | 1008.8 hPa | 0 mm | - | - | - |
| 1778034732 | 8.33° C | 87% | 1009.1 hPa | 0 mm | - | - | - |
| 1778032932 | 10.56° C | 82% | 1009.1 hPa | 0 mm | - | - | - |
| 1778031131 | 10.56° C | 82% | 1009.2 hPa | 0 mm | - | - | - |
| 1778029332 | 10.56° C | 82% | 1009.6 hPa | 0 mm | - | - | - |
| 1778027529 | 10.56° C | 82% | 1009.5 hPa | 0 mm | - | - | - |
| 1778025729 | 10.56° C | 82% | 1009.8 hPa | 0 mm | - | - | - |
| 1778023929 | 10.56° C | 82% | 1010 hPa | 0 mm | - | - | - |
| 1778022129 | 10.56° C | 82% | 1010.1 hPa | 0 mm | - | - | - |
| 1778020330 | 11.67° C | 81% | 1010.3 hPa | 0 mm | - | - | - |
| 1778018529 | 11.67° C | 81% | 1010.4 hPa | 0 mm | - | - | - |
| 1778016731 | 11.67° C | 80% | 1010.2 hPa | 1.02 mm | - | - | - |
| 1778014935 | 12.22° C | 79% | 1010.1 hPa | 1.02 mm | - | - | - |
| 1778013129 | 12.78° C | 79% | 1010.3 hPa | 1.02 mm | - | - | - |
| 1778011330 | 13.33° C | 77% | 1010.4 hPa | 1.02 mm | - | - | - |
| 1778009529 | 15° C | 71% | 1010.2 hPa | 0.25 mm | - | - | - |
| 1778007735 | 15.56° C | 67% | 1009.2 hPa | 0 mm | - | - | - |
* Rain since midnight (hover to see other rain measurements)
** Current wind speed in m/s (hover to see current wind gust speed)